South Windsor, Connecticut
Current Conditions -  °F | °C
As of 10:53 PM on Tuesday 25 Nov 2014 (Local Time) from KHFD Reporting Station
Clear Clear  
Wind Chill: 39°   Ceiling: Unl
Heat Index: 42°   Visibility: 10mi
Dew Point: 30°   Wind: 5mph
Humidity: 62%   Direction: 150°SSE
Pressure: 30.13"   Gusts: NA
Location:  41.82°N, 72.62°W
Report Text: KHFD 260353Z 15004KT 10SM CLR 06/M01 A3013 RMK AO2 SLP201 T00561011
Loading
Personal Weather Stations






























Interactive Weather Map New forecast layout! Learn more

10-Day Weather Forecast

Advertisements
Track Severe Weather on mobile